Time;durP1;ratioP1;P1;durP2;ratioP2;P2;SDS_P1;SDS_P2;PMS_P1;PMS_P2;Temp;Humidity;BMP_temperature;BMP_pressure;BME280_temperature;BME280_humidity;BME280_pressure;Samples;Min_cycle;Max_cycle;Signal;HPM_P1;HPM_P2
2021/01/23 00:00:23;;;;;;;19.02;14.70;;;;;;;-146.38;100.00;60817.44;982487;30;20389;-48
2021/01/23 00:01:52;;;;;;;18.00;15.23;;;;;;;-146.38;100.00;60817.44;982477;30;20196;-48
2021/01/23 00:03:21;;;;;;;16.35;14.07;;;;;;;-146.38;100.00;60817.44;982788;30;20501;-47
2021/01/23 00:04:50;;;;;;;17.80;14.30;;;;;;;-146.38;100.00;60817.44;982586;30;20036;-48
2021/01/23 00:06:19;;;;;;;19.38;15.20;;;;;;;-146.38;100.00;60817.44;982659;30;20032;-47
2021/01/23 00:07:48;;;;;;;15.90;13.98;;;;;;;-146.38;100.00;60817.44;982332;30;20036;-48
2021/01/23 00:09:17;;;;;;;16.60;14.88;;;;;;;-146.38;100.00;60817.44;982639;30;20098;-47
2021/01/23 00:10:46;;;;;;;18.55;14.50;;;;;;;-146.38;100.00;60817.44;983905;30;20067;-48
2021/01/23 00:12:15;;;;;;;18.65;13.57;;;;;;;-146.38;100.00;60817.44;978523;30;20037;-47
2021/01/23 00:13:44;;;;;;;16.20;13.63;;;;;;;-146.38;100.00;60817.44;982018;30;20024;-50
2021/01/23 00:15:13;;;;;;;18.83;14.32;;;;;;;-146.38;100.00;60817.44;982523;30;20040;-49
2021/01/23 00:16:42;;;;;;;17.75;14.35;;;;;;;-146.38;100.00;60817.44;982850;30;20362;-47
2021/01/23 00:18:11;;;;;;;16.20;13.20;;;;;;;-146.38;100.00;60817.44;986317;30;20042;-46
2021/01/23 00:19:40;;;;;;;15.43;12.90;;;;;;;-146.38;100.00;60817.44;986287;30;20036;-46
2021/01/23 00:21:09;;;;;;;15.35;13.10;;;;;;;-146.38;100.00;60817.44;983072;30;20124;-47
2021/01/23 00:22:38;;;;;;;16.23;13.00;;;;;;;-146.38;100.00;60817.44;982508;30;20563;-47
2021/01/23 00:24:07;;;;;;;16.23;13.38;;;;;;;-146.38;100.00;60817.44;982522;30;20040;-49
2021/01/23 00:25:36;;;;;;;16.90;13.02;;;;;;;-146.38;100.00;60817.44;983017;30;20040;-48
2021/01/23 00:27:05;;;;;;;14.90;12.98;;;;;;;-146.38;100.00;60817.44;982747;30;20382;-48
2021/01/23 00:28:34;;;;;;;17.98;13.63;;;;;;;-146.38;100.00;60817.44;982511;30;20043;-47
2021/01/23 00:30:03;;;;;;;15.98;13.60;;;;;;;-146.38;100.00;60817.44;982261;30;20097;-48
2021/01/23 00:31:32;;;;;;;19.75;15.48;;;;;;;-146.38;100.00;60817.44;982195;30;20112;-47
2021/01/23 00:33:01;;;;;;;15.13;13.50;;;;;;;-146.38;100.00;60817.44;978588;30;20028;-49
2021/01/23 00:34:30;;;;;;;16.52;13.80;;;;;;;-146.38;100.00;60817.44;982105;30;20049;-48
2021/01/23 00:35:59;;;;;;;18.13;13.48;;;;;;;-146.38;100.00;60817.44;982499;30;20032;-50
2021/01/23 00:37:28;;;;;;;14.80;12.30;;;;;;;-146.38;100.00;60817.44;982436;30;20116;-50
2021/01/23 00:38:57;;;;;;;14.35;12.82;;;;;;;-146.38;100.00;60817.44;982119;30;20177;-48
2021/01/23 00:40:26;;;;;;;15.38;13.27;;;;;;;-146.38;100.00;60817.44;982235;30;20036;-47
2021/01/23 00:41:55;;;;;;;17.92;13.15;;;;;;;-146.38;100.00;60817.44;982263;30;20036;-46
2021/01/23 00:43:24;;;;;;;16.20;13.38;;;;;;;-146.38;100.00;60817.44;982446;30;20125;-49
2021/01/23 00:44:53;;;;;;;14.90;12.45;;;;;;;-146.38;100.00;60817.44;982546;30;20386;-47
2021/01/23 00:46:23;;;;;;;15.77;13.80;;;;;;;-146.38;100.00;60817.44;982451;30;20067;-47
2021/01/23 00:47:52;;;;;;;15.18;12.82;;;;;;;-146.38;100.00;60817.44;982367;30;20099;-48
2021/01/23 00:49:23;;;;;;;15.85;13.40;;;;;;;-146.38;100.00;60817.44;982350;30;20766;-46
2021/01/23 00:50:51;;;;;;;15.02;12.70;;;;;;;-146.38;100.00;60817.44;982419;30;20068;-47
2021/01/23 00:52:20;;;;;;;13.88;12.15;;;;;;;-146.38;100.00;60817.44;982366;30;20036;-47
2021/01/23 00:53:49;;;;;;;14.00;11.82;;;;;;;-146.38;100.00;60817.44;982067;30;20513;-48
2021/01/23 00:55:22;;;;;;;14.52;13.02;;;;;;;-146.38;100.00;60817.44;982253;30;20088;-48
2021/01/23 00:56:51;;;;;;;12.90;11.50;;;;;;;-146.38;100.00;60817.44;982533;30;20036;-47
2021/01/23 00:58:20;;;;;;;14.07;12.23;;;;;;;-146.38;100.00;60817.44;982175;30;20043;-47
2021/01/23 00:59:49;;;;;;;15.38;12.13;;;;;;;-146.38;100.00;60817.44;982154;30;20382;-47
2021/01/23 01:01:18;;;;;;;13.63;11.65;;;;;;;-146.38;100.00;60817.44;982152;30;20085;-47
2021/01/23 01:02:47;;;;;;;15.00;12.75;;;;;;;-146.38;100.00;60817.44;982423;30;20466;-47
2021/01/23 01:04:16;;;;;;;16.38;13.27;;;;;;;-146.38;100.00;60817.44;981947;30;20099;-47
2021/01/23 01:05:45;;;;;;;13.55;12.15;;;;;;;-146.38;100.00;60817.44;982127;30;20049;-48
2021/01/23 01:07:14;;;;;;;14.02;11.98;;;;;;;-146.38;100.00;60817.44;982496;30;20036;-48
2021/01/23 01:08:43;;;;;;;14.68;11.32;;;;;;;-146.38;100.00;60817.44;982185;30;20035;-49
2021/01/23 01:10:12;;;;;;;17.00;11.95;;;;;;;-146.38;100.00;60817.44;978500;30;20045;-47
2021/01/23 01:11:41;;;;;;;12.13;10.73;;;;;;;-146.38;100.00;60817.44;982016;30;20028;-47
2021/01/23 01:13:10;;;;;;;13.50;10.85;;;;;;;-146.38;100.00;60817.44;982585;30;20032;-48
2021/01/23 01:14:39;;;;;;;13.20;11.05;;;;;;;-146.38;100.00;60817.44;982374;30;20033;-48
2021/01/23 01:16:08;;;;;;;11.98;10.23;;;;;;;-146.38;100.00;60817.44;982252;30;20040;-47
2021/01/23 01:17:37;;;;;;;13.25;10.43;;;;;;;-146.38;100.00;60817.44;982469;30;20032;-47
2021/01/23 01:19:06;;;;;;;10.02;8.57;;;;;;;-146.38;100.00;60817.44;982257;30;20040;-47
2021/01/23 01:20:35;;;;;;;9.98;8.98;;;;;;;-146.38;100.00;60817.44;982594;30;20028;-47
2021/01/23 01:22:04;;;;;;;12.13;9.68;;;;;;;-146.38;100.00;60817.44;982025;30;20433;-48
2021/01/23 01:23:33;;;;;;;10.50;9.40;;;;;;;-146.38;100.00;60817.44;982782;30;20509;-47
2021/01/23 01:25:02;;;;;;;11.48;10.02;;;;;;;-146.38;100.00;60817.44;982977;30;20032;-48
2021/01/23 01:26:31;;;;;;;12.27;10.23;;;;;;;-146.38;100.00;60817.44;982862;30;20386;-48
2021/01/23 01:28:00;;;;;;;9.38;8.20;;;;;;;-146.38;100.00;60817.44;982862;30;20032;-47
2021/01/23 01:29:29;;;;;;;9.38;8.35;;;;;;;-146.38;100.00;60817.44;983052;30;20538;-47
2021/01/23 01:30:58;;;;;;;8.32;6.82;;;;;;;-146.38;100.00;60817.44;983092;30;20119;-47
2021/01/23 01:32:27;;;;;;;7.80;6.78;;;;;;;-146.38;100.00;60817.44;983137;30;20104;-47
2021/01/23 01:33:56;;;;;;;7.72;6.35;;;;;;;-146.38;100.00;60817.44;983055;30;20032;-46
2021/01/23 01:35:25;;;;;;;9.00;7.05;;;;;;;-146.38;100.00;60817.44;982924;30;20035;-48
2021/01/23 01:36:54;;;;;;;9.32;6.75;;;;;;;-146.38;100.00;60817.44;982665;30;20043;-46
2021/01/23 01:38:23;;;;;;;8.85;7.75;;;;;;;-146.38;100.00;60817.44;979047;30;20039;-47
2021/01/23 01:39:51;;;;;;;7.57;6.78;;;;;;;-146.38;100.00;60817.44;982744;30;20043;-48
2021/01/23 01:41:20;;;;;;;7.18;5.60;;;;;;;-146.38;100.00;60817.44;982941;30;20103;-47
2021/01/23 01:42:49;;;;;;;7.78;6.60;;;;;;;-146.38;100.00;60817.44;983115;30;20440;-46
2021/01/23 01:44:18;;;;;;;6.32;5.28;;;;;;;-146.38;100.00;60817.44;983149;30;20430;-47
2021/01/23 01:45:47;;;;;;;6.78;5.85;;;;;;;-146.38;100.00;60817.44;983364;30;20044;-46
2021/01/23 01:47:19;;;;;;;6.85;5.63;;;;;;;-146.38;100.00;60817.44;983517;30;20108;-45
2021/01/23 01:48:48;;;;;;;6.20;5.10;;;;;;;-146.38;100.00;60817.44;979626;30;20482;-45
2021/01/23 01:50:17;;;;;;;5.80;4.82;;;;;;;-146.38;100.00;60817.44;982924;30;20520;-46
2021/01/23 01:51:46;;;;;;;5.45;4.60;;;;;;;-146.38;100.00;60817.44;983225;30;20110;-45
2021/01/23 01:53:20;;;;;;;6.07;4.90;;;;;;;-146.38;100.00;60817.44;983206;30;20035;-44
2021/01/23 01:54:50;;;;;;;5.40;4.10;;;;;;;-146.38;100.00;60817.44;983328;30;20036;-49
2021/01/23 01:56:20;;;;;;;4.78;3.50;;;;;;;-146.38;100.00;60817.44;982871;30;20115;-47
2021/01/23 01:57:56;;;;;;;3.90;2.92;;;;;;;-146.38;100.00;60817.44;982830;30;20032;-45
2021/01/23 01:59:25;;;;;;;5.30;4.10;;;;;;;-146.38;100.00;60817.44;982894;30;20036;-48
2021/01/23 02:00:54;;;;;;;5.10;3.83;;;;;;;-146.38;100.00;60817.44;983105;30;20040;-46
2021/01/23 02:02:35;;;;;;;5.25;3.92;;;;;;;-146.38;100.00;60817.44;982840;30;20083;-45
2021/01/23 02:04:27;;;;;;;4.25;3.30;;;;;;;-146.38;100.00;60817.44;982802;30;20043;-45
2021/01/23 02:06:20;;;;;;;4.97;3.47;;;;;;;-146.38;100.00;60817.44;979042;30;20096;-48
2021/01/23 02:07:57;;;;;;;4.65;3.80;;;;;;;-146.38;100.00;60817.44;974521;30;20047;-51
2021/01/23 02:09:53;;;;;;;4.88;3.63;;;;;;;-146.38;100.00;60817.44;982807;30;20524;-47
2021/01/23 02:12:00;;;;;;;4.00;2.97;;;;;;;-146.38;100.00;60817.44;983168;30;20320;-45
2021/01/23 02:13:54;;;;;;;4.10;3.33;;;;;;;-146.38;100.00;60817.44;983238;30;20048;-45
2021/01/23 02:15:26;;;;;;;4.18;3.17;;;;;;;-146.38;100.00;60817.44;982976;30;20048;-48
2021/01/23 02:17:11;;;;;;;3.53;2.70;;;;;;;-146.38;100.00;60817.44;979360;30;20154;-46
2021/01/23 02:19:10;;;;;;;3.83;3.00;;;;;;;-146.38;100.00;60817.44;981205;30;20498;-50
2021/01/23 02:21:08;;;;;;;4.35;3.40;;;;;;;-146.38;100.00;60817.44;977950;30;20391;-47
2021/01/23 02:23:14;;;;;;;3.10;2.25;;;;;;;-146.38;100.00;60817.44;981402;30;20371;-47
2021/01/23 02:24:44;;;;;;;3.00;2.30;;;;;;;-146.38;100.00;60817.44;979182;30;20037;-45
2021/01/23 02:26:33;;;;;;;2.95;2.17;;;;;;;-146.38;100.00;60817.44;975500;30;20118;-50
2021/01/23 02:28:13;;;;;;;3.80;2.70;;;;;;;-146.38;100.00;60817.44;979295;30;20403;-48
2021/01/23 02:30:07;;;;;;;3.42;2.70;;;;;;;-146.38;100.00;60817.44;983097;30;20028;-49
2021/01/23 02:31:41;;;;;;;3.63;2.80;;;;;;;-146.38;100.00;60817.44;982840;30;20123;-50
2021/01/23 02:33:10;;;;;;;4.00;2.65;;;;;;;-146.38;100.00;60817.44;983151;30;20034;-47
2021/01/23 02:34:39;;;;;;;3.60;2.80;;;;;;;-146.38;100.00;60817.44;978805;30;20057;-47
2021/01/23 02:36:09;;;;;;;3.10;2.25;;;;;;;-146.38;100.00;60817.44;979070;30;20033;-48
2021/01/23 02:37:38;;;;;;;3.65;3.03;;;;;;;-146.38;100.00;60817.44;979028;30;20091;-50
2021/01/23 02:39:07;;;;;;;4.28;3.00;;;;;;;-146.38;100.00;60817.44;979187;30;20086;-52
2021/01/23 02:40:36;;;;;;;4.03;3.28;;;;;;;-146.38;100.00;60817.44;979002;30;20041;-46
2021/01/23 02:42:05;;;;;;;2.40;1.70;;;;;;;-146.38;100.00;60817.44;978921;30;20056;-47
2021/01/23 02:43:36;;;;;;;3.80;3.15;;;;;;;-146.38;100.00;60817.44;971694;30;20459;-47
2021/01/23 02:45:07;;;;;;;4.10;3.20;;;;;;;-146.38;100.00;60817.44;978920;30;20529;-49
2021/01/23 02:46:36;;;;;;;3.80;3.30;;;;;;;-146.38;100.00;60817.44;982436;30;20036;-50
2021/01/23 02:48:05;;;;;;;4.10;3.28;;;;;;;-146.38;100.00;60817.44;982854;30;20504;-50
2021/01/23 02:49:35;;;;;;;4.03;2.78;;;;;;;-146.38;100.00;60817.44;982491;30;20478;-50
2021/01/23 02:51:06;;;;;;;6.93;3.20;;;;;;;-146.38;100.00;60817.44;982459;30;20074;-46
2021/01/23 02:52:46;;;;;;;3.90;3.47;;;;;;;-146.38;100.00;60817.44;983060;30;20028;-48
2021/01/23 02:54:16;;;;;;;3.95;3.55;;;;;;;-146.38;100.00;60817.44;983018;30;20275;-48
2021/01/23 02:55:49;;;;;;;4.13;3.38;;;;;;;-146.38;100.00;60817.44;982567;30;20054;-48
2021/01/23 02:57:19;;;;;;;3.83;3.30;;;;;;;-146.38;100.00;60817.44;979056;30;20033;-50
2021/01/23 02:58:48;;;;;;;4.05;3.50;;;;;;;-146.38;100.00;60817.44;979018;30;20036;-50
2021/01/23 03:00:17;;;;;;;4.18;3.70;;;;;;;-146.38;100.00;60817.44;982776;30;20028;-51
2021/01/23 03:01:46;;;;;;;4.47;3.92;;;;;;;-146.38;100.00;60817.44;982603;30;20040;-48
2021/01/23 03:03:16;;;;;;;3.65;3.25;;;;;;;-146.38;100.00;60817.44;979064;30;20111;-48
2021/01/23 03:04:45;;;;;;;3.30;2.70;;;;;;;-146.38;100.00;60817.44;982483;30;20067;-49
2021/01/23 03:06:14;;;;;;;3.50;2.90;;;;;;;-146.38;100.00;60817.44;982624;30;20032;-49
2021/01/23 03:07:43;;;;;;;4.00;3.10;;;;;;;-146.38;100.00;60817.44;978746;30;20232;-50
2021/01/23 03:09:24;;;;;;;3.25;2.88;;;;;;;-146.38;100.00;60817.44;978763;30;20094;-48
2021/01/23 03:10:53;;;;;;;;;;;;;;;-146.38;100.00;60817.44;983285;30;20028;-48
2021/01/23 03:12:22;;;;;;;3.60;2.53;;;;;;;-146.38;100.00;60817.44;982655;30;20340;-48
2021/01/23 03:13:51;;;;;;;3.42;3.03;;;;;;;-146.38;100.00;60817.44;982677;30;20119;-48
2021/01/23 03:15:20;;;;;;;3.00;2.60;;;;;;;-146.38;100.00;60817.44;982335;30;20032;-48
2021/01/23 03:16:49;;;;;;;3.40;2.50;;;;;;;-146.38;100.00;60817.44;982808;30;20558;-46
2021/01/23 03:18:18;;;;;;;3.22;2.63;;;;;;;-146.38;100.00;60817.44;982524;30;20115;-46
2021/01/23 03:19:47;;;;;;;3.60;3.00;;;;;;;-146.38;100.00;60817.44;982679;30;20078;-47
2021/01/23 03:21:16;;;;;;;3.30;2.80;;;;;;;-146.38;100.00;60817.44;983010;30;20428;-46
2021/01/23 03:22:45;;;;;;;3.60;3.20;;;;;;;-146.38;100.00;60817.44;982773;30;20040;-48
2021/01/23 03:24:14;;;;;;;3.45;2.95;;;;;;;-146.38;100.00;60817.44;982765;30;20036;-47
2021/01/23 03:25:43;;;;;;;3.83;3.30;;;;;;;-146.38;100.00;60817.44;983078;30;20050;-48
2021/01/23 03:27:12;;;;;;;3.30;2.80;;;;;;;-146.38;100.00;60817.44;982725;30;20035;-52
2021/01/23 03:28:41;;;;;;;3.55;2.88;;;;;;;-146.38;100.00;60817.44;982743;30;20032;-48
2021/01/23 03:30:10;;;;;;;2.88;2.40;;;;;;;-146.38;100.00;60817.44;982818;30;20028;-46
2021/01/23 03:31:39;;;;;;;3.05;2.40;;;;;;;-146.38;100.00;60817.44;982812;30;20040;-46
2021/01/23 03:33:08;;;;;;;2.60;2.10;;;;;;;-146.38;100.00;60817.44;982124;30;20043;-47
2021/01/23 03:34:37;;;;;;;4.00;2.40;;;;;;;-146.38;100.00;60817.44;982596;30;20486;-48
2021/01/23 03:36:07;;;;;;;5.47;2.50;;;;;;;-146.38;100.00;60817.44;982697;30;20058;-49
2021/01/23 03:37:36;;;;;;;2.80;2.13;;;;;;;-146.38;100.00;60817.44;982467;30;20055;-46
2021/01/23 03:39:05;;;;;;;2.72;2.30;;;;;;;-146.38;100.00;60817.44;982545;30;20397;-45
2021/01/23 03:40:34;;;;;;;3.30;2.78;;;;;;;-146.38;100.00;60817.44;982718;30;20107;-45
2021/01/23 03:42:02;;;;;;;3.20;2.78;;;;;;;-146.38;100.00;60817.44;982871;30;20055;-45
2021/01/23 03:43:32;;;;;;;3.38;2.80;;;;;;;-146.38;100.00;60817.44;982859;30;20095;-46
2021/01/23 03:45:01;;;;;;;2.70;2.20;;;;;;;-146.38;100.00;60817.44;982957;30;20143;-45
2021/01/23 03:46:31;;;;;;;3.10;2.40;;;;;;;-146.38;100.00;60817.44;982574;30;20431;-45
2021/01/23 03:47:59;;;;;;;3.03;2.50;;;;;;;-146.38;100.00;60817.44;982391;30;20039;-45
2021/01/23 03:49:28;;;;;;;3.30;2.67;;;;;;;-146.38;100.00;60817.44;982830;30;20486;-46
2021/01/23 03:50:57;;;;;;;3.40;2.42;;;;;;;-146.38;100.00;60817.44;982676;30;20386;-46
2021/01/23 03:52:27;;;;;;;3.05;2.50;;;;;;;-146.38;100.00;60817.44;982889;30;20112;-46
2021/01/23 03:53:55;;;;;;;2.95;2.53;;;;;;;-146.38;100.00;60817.44;982541;30;20501;-47
2021/01/23 03:55:24;;;;;;;2.97;2.40;;;;;;;-146.38;100.00;60817.44;983052;30;20452;-45
2021/01/23 03:56:53;;;;;;;3.00;2.40;;;;;;;-146.38;100.00;60817.44;982831;30;20474;-46
2021/01/23 03:58:23;;;;;;;3.08;2.20;;;;;;;-146.38;100.00;60817.44;982674;30;20050;-49
2021/01/23 03:59:52;;;;;;;3.15;2.40;;;;;;;-146.38;100.00;60817.44;982885;30;20032;-45
2021/01/23 04:01:20;;;;;;;2.60;2.10;;;;;;;-146.38;100.00;60817.44;982440;30;20036;-45
2021/01/23 04:02:49;;;;;;;3.00;2.30;;;;;;;-146.38;100.00;60817.44;982845;30;20067;-45
2021/01/23 04:04:18;;;;;;;2.70;2.22;;;;;;;-146.38;100.00;60817.44;982785;30;20044;-46
2021/01/23 04:05:47;;;;;;;2.95;2.35;;;;;;;-146.38;100.00;60817.44;982711;30;20389;-46
2021/01/23 04:07:16;;;;;;;3.47;2.70;;;;;;;-146.38;100.00;60817.44;982236;30;20039;-46
2021/01/23 04:08:45;;;;;;;3.90;3.13;;;;;;;-146.38;100.00;60817.44;982746;30;20068;-47
2021/01/23 04:10:14;;;;;;;3.33;2.88;;;;;;;-146.38;100.00;60817.44;982612;30;20051;-47
2021/01/23 04:11:43;;;;;;;3.60;3.13;;;;;;;-146.38;100.00;60817.44;982427;30;20090;-48
2021/01/23 04:13:12;;;;;;;3.67;2.88;;;;;;;-146.38;100.00;60817.44;978825;30;20115;-47
2021/01/23 04:14:41;;;;;;;3.85;3.40;;;;;;;-146.38;100.00;60817.44;975097;30;20025;-46
2021/01/23 04:16:10;;;;;;;3.50;3.20;;;;;;;-146.38;100.00;60817.44;975279;30;20040;-46
2021/01/23 04:17:39;;;;;;;4.40;3.70;;;;;;;-146.38;100.00;60817.44;982484;30;20028;-47
2021/01/23 04:19:08;;;;;;;3.80;2.88;;;;;;;-146.38;100.00;60817.44;982794;30;20117;-47
2021/01/23 04:20:38;;;;;;;2.80;2.40;;;;;;;-146.38;100.00;60817.44;982509;30;20371;-47
2021/01/23 04:22:06;;;;;;;3.22;2.50;;;;;;;-146.38;100.00;60817.44;982425;30;20124;-47
2021/01/23 04:23:36;;;;;;;3.50;2.90;;;;;;;-146.38;100.00;60817.44;978752;30;20033;-47
2021/01/23 04:25:05;;;;;;;4.20;3.22;;;;;;;-146.38;100.00;60817.44;982355;30;20032;-47
2021/01/23 04:26:34;;;;;;;4.20;3.35;;;;;;;-146.38;100.00;60817.44;978687;30;20071;-47
2021/01/23 04:28:03;;;;;;;3.90;3.30;;;;;;;-146.38;100.00;60817.44;978674;30;20036;-47
2021/01/23 04:29:32;;;;;;;3.40;2.97;;;;;;;-146.38;100.00;60817.44;982691;30;20372;-48
2021/01/23 04:31:02;;;;;;;3.35;2.90;;;;;;;-146.38;100.00;60817.44;982865;30;20046;-48
2021/01/23 04:32:32;;;;;;;3.40;3.10;;;;;;;-146.38;100.00;60817.44;982314;30;20115;-48
2021/01/23 04:34:01;;;;;;;3.95;3.17;;;;;;;-146.38;100.00;60817.44;982633;30;20105;-47
2021/01/23 04:35:30;;;;;;;3.20;2.60;;;;;;;-146.38;100.00;60817.44;982385;30;20035;-48
2021/01/23 04:36:59;;;;;;;4.70;3.10;;;;;;;-146.38;100.00;60817.44;982280;30;20059;-49
2021/01/23 04:38:28;;;;;;;3.60;2.80;;;;;;;-146.38;100.00;60817.44;982618;30;20051;-47
2021/01/23 04:39:57;;;;;;;3.28;2.58;;;;;;;-146.38;100.00;60817.44;982646;30;20087;-48
2021/01/23 04:41:27;;;;;;;4.13;3.00;;;;;;;-146.38;100.00;60817.44;982498;30;20390;-49
2021/01/23 04:42:56;;;;;;;3.38;2.97;;;;;;;-146.38;100.00;60817.44;982525;30;20043;-48
2021/01/23 04:44:25;;;;;;;3.80;3.30;;;;;;;-146.38;100.00;60817.44;982579;30;20032;-49
2021/01/23 04:45:54;;;;;;;3.72;3.22;;;;;;;-146.38;100.00;60817.44;982391;30;20133;-49
2021/01/23 04:47:23;;;;;;;3.17;2.70;;;;;;;-146.38;100.00;60817.44;982530;30;20035;-49
2021/01/23 04:48:53;;;;;;;3.25;2.60;;;;;;;-146.38;100.00;60817.44;982003;30;20036;-53
2021/01/23 04:50:22;;;;;;;3.30;2.72;;;;;;;-146.38;100.00;60817.44;978687;30;20107;-49
2021/01/23 04:51:51;;;;;;;3.65;2.53;;;;;;;-146.38;100.00;60817.44;982455;30;20032;-48
2021/01/23 04:53:20;;;;;;;3.20;2.80;;;;;;;-146.38;100.00;60817.44;982555;30;20386;-48
2021/01/23 04:54:49;;;;;;;3.20;2.55;;;;;;;-146.38;100.00;60817.44;982528;30;20079;-48
2021/01/23 04:56:18;;;;;;;3.55;3.08;;;;;;;-146.38;100.00;60817.44;982944;30;20044;-51
2021/01/23 04:57:48;;;;;;;3.40;2.78;;;;;;;-146.38;100.00;60817.44;982400;30;20062;-48
2021/01/23 04:59:17;;;;;;;3.38;2.63;;;;;;;-146.38;100.00;60817.44;982464;30;20083;-51
2021/01/23 05:00:46;;;;;;;4.72;3.15;;;;;;;-146.38;100.00;60817.44;982509;30;20097;-47
2021/01/23 05:02:18;;;;;;;3.15;2.47;;;;;;;-146.38;100.00;60817.44;982459;30;20024;-48
2021/01/23 05:03:58;;;;;;;3.60;3.15;;;;;;;-146.38;100.00;60817.44;982239;30;20039;-47
2021/01/23 05:05:36;;;;;;;4.70;3.50;;;;;;;-146.38;100.00;60817.44;982463;30;20039;-48
2021/01/23 05:07:05;;;;;;;4.00;3.60;;;;;;;-146.38;100.00;60817.44;975905;30;20190;-48
2021/01/23 05:08:37;;;;;;;3.70;3.10;;;;;;;-146.38;100.00;60817.44;978588;30;20028;-48
2021/01/23 05:10:16;;;;;;;3.85;3.03;;;;;;;-146.38;100.00;60817.44;982265;30;20039;-47
2021/01/23 05:11:45;;;;;;;4.47;2.83;;;;;;;-146.38;100.00;60817.44;982563;30;20466;-48
2021/01/23 05:13:33;;;;;;;3.67;3.15;;;;;;;-146.38;100.00;60817.44;978574;30;20029;-49
2021/01/23 05:15:26;;;;;;;3.53;2.97;;;;;;;-146.38;100.00;60817.44;980736;30;20040;-49
2021/01/23 05:17:02;;;;;;;3.10;2.67;;;;;;;-146.38;100.00;60817.44;982239;30;20067;-48
2021/01/23 05:18:53;;;;;;;3.30;2.58;;;;;;;-146.38;100.00;60817.44;982503;30;20032;-50
2021/01/23 05:20:34;;;;;;;3.30;2.83;;;;;;;-146.38;100.00;60817.44;982267;30;20179;-49
2021/01/23 05:22:07;;;;;;;3.30;2.85;;;;;;;-146.38;100.00;60817.44;982294;30;20028;-50
2021/01/23 05:23:50;;;;;;;3.28;2.80;;;;;;;-146.38;100.00;60817.44;982743;30;20474;-50
2021/01/23 05:25:19;;;;;;;3.33;2.60;;;;;;;-146.38;100.00;60817.44;982111;30;20389;-51
2021/01/23 05:26:54;;;;;;;3.38;2.65;;;;;;;-146.38;100.00;60817.44;982328;30;20093;-50
2021/01/23 05:28:36;;;;;;;3.38;2.80;;;;;;;-146.38;100.00;60817.44;982117;30;20055;-49
2021/01/23 05:30:06;;;;;;;3.92;2.92;;;;;;;-146.38;100.00;60817.44;982303;30;20036;-49
2021/01/23 05:31:38;;;;;;;3.60;3.20;;;;;;;-146.38;100.00;60817.44;982296;30;20159;-49
2021/01/23 05:33:14;;;;;;;3.95;3.13;;;;;;;-146.38;100.00;60817.44;982605;30;20125;-50
2021/01/23 05:34:43;;;;;;;3.55;3.10;;;;;;;-146.38;100.00;60817.44;982477;30;20084;-49
2021/01/23 05:36:13;;;;;;;4.10;3.28;;;;;;;-146.38;100.00;60817.44;981892;30;20131;-49
2021/01/23 05:37:42;;;;;;;4.60;2.92;;;;;;;-146.38;100.00;60817.44;978189;30;20071;-50
2021/01/23 05:39:20;;;;;;;3.70;3.00;;;;;;;-146.38;100.00;60817.44;982407;30;20108;-50
2021/01/23 05:40:51;;;;;;;3.50;2.88;;;;;;;-146.38;100.00;60817.44;982426;30;20063;-51
2021/01/23 05:42:20;;;;;;;3.30;2.83;;;;;;;-146.38;100.00;60817.44;982469;30;20123;-50
2021/01/23 05:43:50;;;;;;;5.25;3.78;;;;;;;-146.38;100.00;60817.44;981823;30;20036;-50
2021/01/23 05:45:18;;;;;;;10.18;6.75;;;;;;;-146.38;100.00;60817.44;981933;30;20390;-50
2021/01/23 05:46:47;;;;;;;9.15;7.40;;;;;;;-146.38;100.00;60817.44;982303;30;20040;-52
2021/01/23 05:48:23;;;;;;;6.90;5.18;;;;;;;-146.38;100.00;60817.44;982251;30;20049;-52
2021/01/23 05:49:53;;;;;;;5.93;3.55;;;;;;;-146.38;100.00;60817.44;982418;30;20119;-52
2021/01/23 05:51:22;;;;;;;3.47;2.75;;;;;;;-146.38;100.00;60817.44;978203;30;20556;-48
2021/01/23 05:52:51;;;;;;;3.60;3.20;;;;;;;-146.38;100.00;60817.44;981923;30;20125;-49
2021/01/23 05:54:19;;;;;;;4.00;3.40;;;;;;;-146.38;100.00;60817.44;982232;30;20036;-48
2021/01/23 05:55:49;;;;;;;3.97;2.67;;;;;;;-146.38;100.00;60817.44;983226;30;20405;-50
2021/01/23 05:57:18;;;;;;;3.78;2.85;;;;;;;-146.38;100.00;60817.44;985613;30;20044;-47
2021/01/23 05:58:47;;;;;;;5.07;3.53;;;;;;;-146.38;100.00;60817.44;978222;30;20123;-49
2021/01/23 06:00:16;;;;;;;4.30;3.47;;;;;;;-146.38;100.00;60817.44;984678;30;20110;-48
2021/01/23 06:01:45;;;;;;;3.92;3.50;;;;;;;-146.38;100.00;60817.44;985515;30;20119;-49
2021/01/23 06:03:15;;;;;;;4.38;3.83;;;;;;;-146.38;100.00;60817.44;978203;30;20064;-48
2021/01/23 06:04:52;;;;;;;4.43;3.78;;;;;;;-146.38;100.00;60817.44;982086;30;20036;-48
2021/01/23 06:06:21;;;;;;;4.60;3.65;;;;;;;-146.38;100.00;60817.44;978219;30;20041;-49
2021/01/23 06:07:50;;;;;;;4.35;3.60;;;;;;;-146.38;100.00;60817.44;978120;30;20040;-48
2021/01/23 06:09:39;;;;;;;4.00;3.47;;;;;;;-146.38;100.00;60817.44;986223;30;20039;-49
2021/01/23 06:11:20;;;;;;;4.63;3.65;;;;;;;-146.38;100.00;60817.44;982909;30;20028;-48
2021/01/23 06:12:55;;;;;;;4.13;3.72;;;;;;;-146.38;100.00;60817.44;982960;30;20044;-48
2021/01/23 06:14:35;;;;;;;4.00;3.08;;;;;;;-146.38;100.00;60817.44;986605;30;20057;-50
2021/01/23 06:16:31;;;;;;;4.32;3.92;;;;;;;-146.38;100.00;60817.44;985211;30;20393;-52
2021/01/23 06:18:01;;;;;;;4.13;3.50;;;;;;;-146.38;100.00;60817.44;983720;30;20043;-52
2021/01/23 06:19:39;;;;;;;4.63;3.90;;;;;;;-146.38;100.00;60817.44;986451;30;20114;-50
2021/01/23 06:21:08;;;;;;;5.72;4.78;;;;;;;-146.38;100.00;60817.44;982839;30;20463;-52
2021/01/23 06:22:53;;;;;;;5.82;4.57;;;;;;;-146.38;100.00;60817.44;982849;30;20037;-53
2021/01/23 06:24:48;;;;;;;4.95;4.45;;;;;;;-146.38;100.00;60817.44;982387;30;20502;-52
2021/01/23 06:26:17;;;;;;;5.32;4.80;;;;;;;-146.38;100.00;60817.44;985419;30;20043;-53
2021/01/23 06:27:52;;;;;;;4.32;3.92;;;;;;;-146.38;100.00;60817.44;986142;30;20052;-53
2021/01/23 06:29:33;;;;;;;4.30;3.60;;;;;;;-146.38;100.00;60817.44;982784;30;20151;-50
2021/01/23 06:31:27;;;;;;;4.40;4.00;;;;;;;-146.38;100.00;60817.44;982712;30;20482;-53
2021/01/23 06:33:23;;;;;;;4.20;3.80;;;;;;;-146.38;100.00;60817.44;982495;30;20099;-52
2021/01/23 06:34:52;;;;;;;4.43;3.88;;;;;;;-146.38;100.00;60817.44;982655;30;20093;-50
2021/01/23 06:36:22;;;;;;;4.57;4.13;;;;;;;-146.38;100.00;60817.44;986401;30;20039;-50
2021/01/23 06:38:11;;;;;;;4.40;4.00;;;;;;;-146.38;100.00;60817.44;986461;30;20039;-50
2021/01/23 06:40:01;;;;;;;4.97;4.30;;;;;;;-146.38;100.00;60817.44;982848;30;20110;-53
2021/01/23 06:41:33;;;;;;;3.90;3.50;;;;;;;-146.38;100.00;60817.44;986110;30;20110;-54
2021/01/23 06:43:02;;;;;;;4.30;3.67;;;;;;;-146.38;100.00;60817.44;982925;30;20057;-52
2021/01/23 06:44:32;;;;;;;4.90;4.15;;;;;;;-146.38;100.00;60817.44;978507;30;20439;-53
2021/01/23 06:46:13;;;;;;;4.55;4.00;;;;;;;-146.38;100.00;60817.44;979455;30;20048;-53
2021/01/23 06:47:52;;;;;;;3.95;3.47;;;;;;;-146.38;100.00;60817.44;982070;30;20074;-54
2021/01/23 06:49:21;;;;;;;3.80;3.22;;;;;;;-146.38;100.00;60817.44;982755;30;20127;-49
2021/01/23 06:50:50;;;;;;;4.72;4.13;;;;;;;-146.38;100.00;60817.44;982773;30;20040;-52
2021/01/23 06:52:19;;;;;;;7.03;4.47;;;;;;;-146.38;100.00;60817.44;985223;30;20192;-50
2021/01/23 06:53:48;;;;;;;4.18;3.75;;;;;;;-146.38;100.00;60817.44;986106;30;20436;-53
2021/01/23 06:55:37;;;;;;;4.75;4.10;;;;;;;-146.38;100.00;60817.44;982659;30;20135;-52
2021/01/23 06:57:06;;;;;;;3.97;3.40;;;;;;;-146.38;100.00;60817.44;982463;30;20090;-51
2021/01/23 06:58:43;;;;;;;5.22;4.72;;;;;;;-146.38;100.00;60817.44;982658;30;20474;-53
2021/01/23 07:00:21;;;;;;;4.35;3.60;;;;;;;-146.38;100.00;60817.44;982369;30;20036;-52
2021/01/23 07:02:09;;;;;;;4.75;3.85;;;;;;;-146.38;100.00;60817.44;982260;30;20486;-54